Time;durP1;ratioP1;P1;durP2;ratioP2;P2;SDS_P1;SDS_P2;PMS_P1;PMS_P2;Temp;Humidity;BMP_temperature;BMP_pressure;BME280_temperature;BME280_humidity;BME280_pressure;Samples;Min_cycle;Max_cycle;Signal;HPM_P1;HPM_P2
2022/08/25 00:01:29;;;;;;;10.15;6.55;;;;;;;18.46;100.00;96394.47;5082759;28;20040;-73
2022/08/25 00:03:57;;;;;;;11.80;6.95;;;;;;;18.21;100.00;96393.44;5083646;28;20069;-74
2022/08/25 00:06:23;;;;;;;11.20;6.47;;;;;;;18.18;100.00;96391.22;5083790;28;20036;-73
2022/08/25 00:08:49;;;;;;;10.27;7.18;;;;;;;18.28;100.00;96392.44;5084278;28;20040;-74
2022/08/25 00:11:18;;;;;;;9.02;6.93;;;;;;;18.25;100.00;96402.69;5084960;28;20028;-74
2022/08/25 00:13:46;;;;;;;9.35;7.10;;;;;;;18.17;100.00;96393.03;5084119;28;20032;-73
2022/08/25 00:16:15;;;;;;;10.25;7.63;;;;;;;18.19;100.00;96393.66;5065939;28;20058;-73
2022/08/25 00:18:44;;;;;;;10.50;7.25;;;;;;;18.19;100.00;96393.66;5084131;28;20036;-74
2022/08/25 00:21:12;;;;;;;10.63;7.10;;;;;;;18.18;100.00;96392.03;5088823;28;20028;-73
2022/08/25 00:23:38;;;;;;;10.75;7.97;;;;;;;17.91;100.00;96396.47;5086875;28;20027;-73
2022/08/25 00:26:05;;;;;;;9.55;7.45;;;;;;;17.94;100.00;96395.22;5086446;28;20028;-73
2022/08/25 00:28:31;;;;;;;10.13;7.10;;;;;;;17.93;100.00;96397.06;5088183;28;20032;-73
2022/08/25 00:31:00;;;;;;;9.85;7.10;;;;;;;17.87;100.00;96392.56;5088993;28;20031;-74
2022/08/25 00:33:27;;;;;;;11.93;7.57;;;;;;;17.93;100.00;96393.59;5087046;28;20033;-73
2022/08/25 00:35:55;;;;;;;9.32;6.93;;;;;;;17.86;100.00;96391.75;5085407;28;20020;-73
2022/08/25 00:38:21;;;;;;;10.65;7.35;;;;;;;17.87;100.00;96389.91;5089185;28;20032;-73
2022/08/25 00:41:04;;;;;;;11.48;7.57;;;;;;;17.71;100.00;96390.25;5087957;28;20114;-73
2022/08/25 00:43:50;;;;;;;9.82;7.70;;;;;;;17.61;100.00;96394.09;5084292;28;20490;-73
2022/08/25 00:46:29;;;;;;;11.02;7.93;;;;;;;17.53;100.00;96394.25;5085931;28;20050;-74
2022/08/25 00:48:59;;;;;;;10.90;8.60;;;;;;;17.47;100.00;96395.09;5088407;28;20496;-74
2022/08/25 00:51:34;;;;;;;12.75;8.77;;;;;;;17.45;100.00;96391.78;5088598;28;20027;-74
2022/08/25 00:54:02;;;;;;;11.57;8.52;;;;;;;17.30;100.00;96399.06;5084971;28;20044;-73
2022/08/25 00:56:30;;;;;;;12.82;8.75;;;;;;;17.37;100.00;96391.94;5088266;28;20085;-74
2022/08/25 00:58:57;;;;;;;11.07;8.05;;;;;;;17.52;100.00;96382.00;5086808;28;20558;-74
2022/08/25 01:01:22;;;;;;;12.52;8.50;;;;;;;17.49;100.00;96386.91;5086560;28;20036;-74
2022/08/25 01:03:48;;;;;;;11.40;7.70;;;;;;;17.48;100.00;96383.41;5086857;28;20496;-73
2022/08/25 01:06:14;;;;;;;10.05;7.97;;;;;;;17.44;100.00;96379.53;5087143;28;20032;-73
2022/08/25 01:08:40;;;;;;;11.70;8.32;;;;;;;17.46;100.00;96377.47;5085246;28;20448;-73
2022/08/25 01:11:09;;;;;;;13.88;7.93;;;;;;;17.42;100.00;96381.53;5085464;28;20024;-74
2022/08/25 01:13:41;;;;;;;11.23;8.40;;;;;;;17.48;100.00;96377.28;5085824;28;20443;-73
2022/08/25 01:16:07;;;;;;;11.73;8.82;;;;;;;17.47;100.00;96371.16;5080586;28;20039;-73
2022/08/25 01:18:53;;;;;;;12.05;7.57;;;;;;;17.49;100.00;96374.41;5078151;28;20432;-73
2022/08/25 01:21:22;;;;;;;11.75;8.25;;;;;;;17.53;100.00;96370.34;5079620;28;20092;-74
2022/08/25 01:23:49;;;;;;;12.15;8.05;;;;;;;17.42;100.00;96370.91;5088111;28;20042;-74
2022/08/25 01:26:19;;;;;;;11.02;8.10;;;;;;;17.46;100.00;96369.50;5081494;28;20576;-74
2022/08/25 01:31:31;;;;;;;10.95;8.10;;;;;;;17.35;100.00;96370.06;5083635;28;20039;-74
2022/08/25 01:33:57;;;;;;;10.60;8.35;;;;;;;17.45;100.00;96370.53;5087936;28;20068;-74
2022/08/25 01:36:26;;;;;;;13.13;9.85;;;;;;;17.26;100.00;96366.75;5084543;28;20031;-73
2022/08/25 01:38:52;;;;;;;10.88;8.77;;;;;;;17.31;100.00;96372.31;5088292;28;20109;-73
2022/08/25 01:41:28;;;;;;;12.20;9.05;;;;;;;17.37;100.00;96373.34;5087163;28;20063;-73
2022/08/25 01:43:53;;;;;;;14.23;8.95;;;;;;;17.25;100.00;96372.28;5089029;28;20031;-74
2022/08/25 01:46:20;;;;;;;11.60;9.25;;;;;;;17.16;100.00;96361.78;5086171;28;20028;-73
2022/08/25 01:48:45;;;;;;;13.18;8.82;;;;;;;17.20;100.00;96364.88;5087510;28;20028;-73
2022/08/25 01:51:14;;;;;;;14.45;9.73;;;;;;;17.17;100.00;96365.31;5086869;28;20413;-73
2022/08/25 01:53:40;;;;;;;10.98;8.40;;;;;;;17.17;100.00;96354.66;5068397;28;20069;-73
2022/08/25 01:56:11;;;;;;;14.98;8.98;;;;;;;17.09;100.00;96357.47;5074152;28;20032;-73
2022/08/25 01:58:40;;;;;;;12.50;9.73;;;;;;;17.18;100.00;96354.47;5084699;28;20028;-73
2022/08/25 02:01:10;;;;;;;13.85;9.75;;;;;;;17.23;100.00;96355.69;5085440;28;20032;-73
2022/08/25 02:03:39;;;;;;;11.95;9.70;;;;;;;17.20;100.00;96352.44;5079231;28;20115;-73
2022/08/25 02:06:05;;;;;;;12.50;9.10;;;;;;;17.14;100.00;96353.22;5089718;28;20124;-74
2022/08/25 02:08:32;;;;;;;12.25;8.77;;;;;;;17.10;100.00;96353.78;5089468;28;20028;-73
2022/08/25 02:10:58;;;;;;;13.95;8.80;;;;;;;17.13;100.00;96356.88;5082430;28;20036;-74
2022/08/25 02:13:23;;;;;;;13.27;9.85;;;;;;;17.15;100.00;96360.16;5089549;28;20389;-74
2022/08/25 02:15:55;;;;;;;14.23;9.27;;;;;;;17.16;100.00;96355.66;5087250;28;20040;-74
2022/08/25 02:18:21;;;;;;;13.27;10.00;;;;;;;17.06;100.00;96348.06;5090260;28;20028;-73
2022/08/25 02:20:47;;;;;;;12.18;9.30;;;;;;;17.08;100.00;96339.91;5080746;28;20024;-74
2022/08/25 02:23:14;;;;;;;10.52;8.90;;;;;;;17.12;100.00;96339.31;5088223;28;20474;-73
2022/08/25 02:25:40;;;;;;;12.60;9.38;;;;;;;17.17;100.00;96342.19;5086319;28;20415;-74
2022/08/25 02:28:07;;;;;;;12.18;9.70;;;;;;;17.19;100.00;96340.16;5084128;28;20024;-73
2022/08/25 02:30:35;;;;;;;14.32;10.00;;;;;;;17.07;100.00;96347.06;5080096;28;20075;-74
2022/08/25 02:33:01;;;;;;;12.32;10.07;;;;;;;17.04;100.00;96343.97;5086939;28;20029;-74
2022/08/25 02:35:26;;;;;;;13.05;9.90;;;;;;;17.06;100.00;96336.59;5085178;28;20032;-74
2022/08/25 02:37:53;;;;;;;12.45;9.38;;;;;;;17.05;100.00;96327.81;5087009;28;20036;-74
2022/08/25 02:40:20;;;;;;;10.70;8.07;;;;;;;17.09;100.00;96334.38;5085667;28;20039;-74
2022/08/25 02:42:47;;;;;;;12.48;9.32;;;;;;;17.12;100.00;96333.97;5087676;28;20043;-73
2022/08/25 02:45:13;;;;;;;12.10;8.82;;;;;;;17.00;100.00;96332.94;5076836;28;20380;-73
2022/08/25 02:47:40;;;;;;;10.88;9.15;;;;;;;17.03;100.00;96324.53;5082962;28;20500;-73
2022/08/25 02:50:07;;;;;;;12.75;10.02;;;;;;;17.00;100.00;96327.63;5089898;28;20036;-73
2022/08/25 02:52:34;;;;;;;13.93;10.57;;;;;;;17.00;100.00;96334.75;5088935;28;20032;-73
2022/08/25 02:55:03;;;;;;;14.02;10.23;;;;;;;16.96;100.00;96336.97;5089073;28;20025;-73
2022/08/25 02:57:30;;;;;;;14.77;10.15;;;;;;;16.90;100.00;96333.28;5088666;28;20042;-74
2022/08/25 02:59:56;;;;;;;15.35;11.38;;;;;;;16.84;100.00;96330.59;5096254;28;20047;-73
2022/08/25 03:02:23;;;;;;;14.70;10.93;;;;;;;16.83;100.00;96334.25;5099070;28;20035;-73
2022/08/25 03:04:50;;;;;;;15.25;11.40;;;;;;;16.65;100.00;96340.84;5096716;28;20036;-73
2022/08/25 03:07:18;;;;;;;18.63;11.23;;;;;;;16.68;100.00;96337.00;5084333;28;20042;-73
2022/08/25 03:09:44;;;;;;;15.15;11.18;;;;;;;16.61;100.00;96336.13;5080150;28;20040;-74
2022/08/25 03:12:10;;;;;;;13.63;10.63;;;;;;;16.51;100.00;96336.47;5079018;28;20108;-73
2022/08/25 03:14:36;;;;;;;13.98;10.93;;;;;;;16.40;100.00;96329.88;5074419;28;20040;-73
2022/08/25 03:17:02;;;;;;;13.27;11.27;;;;;;;16.38;100.00;96329.22;5071793;28;20028;-73
2022/08/25 03:19:28;;;;;;;14.55;11.27;;;;;;;16.31;100.00;96324.91;5085002;28;20111;-73
2022/08/25 03:21:55;;;;;;;13.00;10.73;;;;;;;16.40;100.00;96324.56;5085663;28;20131;-73
2022/08/25 03:24:22;;;;;;;17.00;12.32;;;;;;;16.43;100.00;96323.34;5086314;28;20027;-73
2022/08/25 03:26:58;;;;;;;16.63;11.73;;;;;;;16.32;100.00;96326.53;5076552;28;20044;-75
2022/08/25 03:29:30;;;;;;;14.75;11.50;;;;;;;16.33;100.00;96321.03;5074788;28;20097;-73
2022/08/25 03:31:59;;;;;;;16.55;11.60;;;;;;;16.33;100.00;96317.53;5085419;28;20457;-73
2022/08/25 03:34:27;;;;;;;15.95;12.85;;;;;;;16.37;100.00;96318.81;5077907;28;20028;-74
2022/08/25 03:36:54;;;;;;;14.40;11.82;;;;;;;16.41;100.00;96325.38;5084019;28;20024;-73
2022/08/25 03:39:23;;;;;;;14.95;11.48;;;;;;;16.23;100.00;96323.19;5086141;28;20477;-73
2022/08/25 03:41:50;;;;;;;17.45;12.63;;;;;;;16.36;100.00;96322.47;5086658;28;20036;-73
2022/08/25 03:44:18;;;;;;;16.65;13.18;;;;;;;16.41;100.00;96330.69;5076381;28;20126;-73
2022/08/25 03:46:50;;;;;;;18.50;16.17;;;;;;;16.33;100.00;96336.13;5082927;28;20115;-73
2022/08/25 03:49:21;;;;;;;16.45;13.63;;;;;;;16.36;100.00;96333.09;5083589;28;20305;-74
2022/08/25 03:51:49;;;;;;;13.57;11.13;;;;;;;16.32;100.00;96335.31;5083844;28;20042;-73
2022/08/25 03:54:20;;;;;;;13.40;10.30;;;;;;;16.30;100.00;96333.84;5079193;28;20024;-73
2022/08/25 03:56:46;;;;;;;17.50;12.80;;;;;;;16.27;100.00;96325.28;5085938;28;20056;-74
2022/08/25 03:59:12;;;;;;;18.23;12.25;;;;;;;16.16;100.00;96325.81;5068031;28;20440;-73
2022/08/25 04:01:40;;;;;;;15.25;11.43;;;;;;;16.19;100.00;96333.38;5078681;28;20063;-73
2022/08/25 04:04:08;;;;;;;14.95;11.88;;;;;;;16.17;100.00;96335.41;5082501;28;20027;-73
2022/08/25 04:06:34;;;;;;;13.18;10.93;;;;;;;16.20;100.00;96328.91;5085300;28;20810;-73
2022/08/25 04:08:59;;;;;;;14.40;10.38;;;;;;;16.24;100.00;96335.47;5083021;28;20107;-74
2022/08/25 04:11:26;;;;;;;14.70;10.68;;;;;;;16.29;100.00;96338.34;5079819;28;20047;-74
2022/08/25 04:13:55;;;;;;;15.25;11.68;;;;;;;16.26;100.00;96350.19;5084219;28;20095;-73
2022/08/25 04:16:23;;;;;;;14.70;11.40;;;;;;;16.25;100.00;96348.53;5083695;28;20032;-74
2022/08/25 04:18:50;;;;;;;13.75;10.65;;;;;;;16.27;100.00;96351.00;5084270;28;20541;-74
2022/08/25 04:21:17;;;;;;;12.52;10.40;;;;;;;16.29;100.00;96342.84;5083454;28;20066;-74
2022/08/25 04:23:44;;;;;;;14.73;11.68;;;;;;;16.17;100.00;96339.91;5084357;28;20097;-74
2022/08/25 04:26:15;;;;;;;13.55;10.85;;;;;;;16.16;100.00;96343.53;5079264;28;20040;-73
2022/08/25 04:28:41;;;;;;;13.57;10.88;;;;;;;16.19;100.00;96343.16;5085040;28;20066;-73
2022/08/25 04:31:08;;;;;;;16.55;11.32;;;;;;;16.24;100.00;96343.41;5083240;28;20036;-73
2022/08/25 04:33:36;;;;;;;14.55;10.70;;;;;;;16.30;100.00;96347.13;5084957;28;20110;-73
2022/08/25 04:36:03;;;;;;;14.15;10.98;;;;;;;16.19;100.00;96332.53;5083470;28;20043;-73
2022/08/25 04:38:29;;;;;;;29.27;26.08;;;;;;;15.98;100.00;96342.16;5083612;28;20439;-73
2022/08/25 04:41:01;;;;;;;25.60;21.73;;;;;;;16.14;100.00;96340.28;5067026;28;20028;-73
2022/08/25 04:43:26;;;;;;;19.02;16.45;;;;;;;16.23;100.00;96334.66;5076364;28;20078;-73
2022/08/25 04:45:52;;;;;;;15.98;12.95;;;;;;;16.19;100.00;96330.72;5084201;28;20066;-74
2022/08/25 04:48:19;;;;;;;15.18;11.23;;;;;;;16.25;100.00;96337.91;5085431;28;20023;-73
2022/08/25 04:50:45;;;;;;;14.82;11.68;;;;;;;16.34;100.00;96335.94;5082629;28;20040;-73
2022/08/25 04:53:11;;;;;;;15.98;12.23;;;;;;;16.25;100.00;96335.25;5084585;28;20085;-73
2022/08/25 04:55:45;;;;;;;16.23;12.43;;;;;;;16.15;100.00;96334.75;5077162;28;20047;-73
2022/08/25 04:58:11;;;;;;;17.17;12.45;;;;;;;16.20;100.00;96342.97;5078281;28;20734;-73
2022/08/25 05:00:38;;;;;;;16.13;11.70;;;;;;;16.23;100.00;96336.44;5073116;28;20031;-73
2022/08/25 05:03:05;;;;;;;17.63;12.82;;;;;;;16.26;100.00;96331.59;5083180;28;20049;-73
2022/08/25 05:05:34;;;;;;;15.57;12.13;;;;;;;16.29;100.00;96342.84;5082996;28;20035;-73
2022/08/25 05:08:00;;;;;;;16.80;12.50;;;;;;;16.44;100.00;96335.63;5078179;28;20070;-73
2022/08/25 05:10:25;;;;;;;15.77;13.07;;;;;;;16.56;100.00;96333.22;5087327;28;20031;-73
2022/08/25 05:12:51;;;;;;;16.52;13.23;;;;;;;16.61;100.00;96336.13;5088369;28;20044;-73
2022/08/25 05:18:01;;;;;;;19.80;13.63;;;;;;;16.46;100.00;96333.56;5082905;28;20031;-73
2022/08/25 05:20:29;;;;;;;18.80;14.02;;;;;;;16.59;100.00;96332.84;5082521;28;20040;-74
2022/08/25 05:22:54;;;;;;;16.05;12.48;;;;;;;16.80;100.00;96329.31;5087093;28;20077;-74
2022/08/25 05:25:20;;;;;;;17.08;12.93;;;;;;;16.82;100.00;96327.28;5088118;28;20056;-74
2022/08/25 05:27:46;;;;;;;15.88;11.95;;;;;;;17.05;100.00;96329.66;5085640;28;20024;-73
2022/08/25 05:30:11;;;;;;;17.55;12.27;;;;;;;17.38;100.00;96329.81;5083641;28;20032;-73
2022/08/25 05:32:37;;;;;;;14.70;12.27;;;;;;;17.64;100.00;96329.88;5085125;28;20038;-73
2022/08/25 05:35:05;;;;;;;14.25;11.63;;;;;;;17.52;100.00;96328.00;5088712;28;20032;-73
2022/08/25 05:37:31;;;;;;;16.13;11.95;;;;;;;18.03;100.00;96320.34;5085140;28;20576;-73
2022/08/25 05:39:57;;;;;;;18.05;12.38;;;;;;;18.04;100.00;96314.00;5085306;28;20039;-73
2022/08/25 05:42:23;;;;;;;16.70;13.32;;;;;;;17.98;100.00;96308.69;5088204;28;20047;-74
2022/08/25 05:44:49;;;;;;;14.85;11.63;;;;;;;18.54;100.00;96310.91;5084446;28;20105;-74
2022/08/25 05:47:15;;;;;;;16.77;11.93;;;;;;;18.52;100.00;96310.31;5087497;28;20028;-74
2022/08/25 05:49:41;;;;;;;13.75;10.55;;;;;;;19.06;100.00;96309.97;5079354;28;20132;-74
2022/08/25 05:52:07;;;;;;;12.45;10.48;;;;;;;19.35;100.00;96307.81;5081411;28;20028;-74
2022/08/25 05:54:32;;;;;;;14.50;10.85;;;;;;;19.25;100.00;96305.63;5081137;28;20474;-74
2022/08/25 05:56:59;;;;;;;13.05;11.15;;;;;;;19.00;100.00;96299.34;5086312;28;20065;-73
2022/08/25 05:59:24;;;;;;;14.82;11.48;;;;;;;18.90;100.00;96299.78;5084914;28;20032;-74
2022/08/25 06:04:34;;;;;;;17.30;11.00;;;;;;;19.69;100.00;96297.81;5081692;28;20055;-72
2022/08/25 06:07:00;;;;;;;14.65;10.90;;;;;;;20.08;100.00;96296.69;5078784;28;20516;-74
2022/08/25 06:09:26;;;;;;;15.27;10.18;;;;;;;20.29;100.00;96289.34;5087149;28;20047;-73
2022/08/25 06:11:52;;;;;;;13.40;10.25;;;;;;;20.30;100.00;96289.13;5081006;28;20032;-74
2022/08/25 06:14:19;;;;;;;13.57;10.68;;;;;;;20.15;100.00;96293.97;5080076;28;20040;-74
2022/08/25 06:16:47;;;;;;;13.77;10.80;;;;;;;20.31;100.00;96298.78;5085209;28;20081;-74
2022/08/25 06:19:13;;;;;;;13.68;10.68;;;;;;;20.54;100.00;96289.38;5085357;28;20032;-74
2022/08/25 06:21:39;;;;;;;15.70;11.00;;;;;;;20.76;100.00;96287.91;5085993;28;20032;-74
2022/08/25 06:24:07;;;;;;;14.40;10.93;;;;;;;20.44;100.00;96279.16;5087360;28;20509;-74
2022/08/25 06:26:33;;;;;;;14.50;10.43;;;;;;;20.66;100.00;96276.91;5076720;28;20036;-74
2022/08/25 06:28:59;;;;;;;13.63;9.65;;;;;;;20.89;100.00;96278.91;5084824;28;20028;-74
2022/08/25 06:31:25;;;;;;;12.18;9.30;;;;;;;21.36;100.00;96276.50;5086486;28;20042;-74
2022/08/25 06:33:51;;;;;;;13.32;9.30;;;;;;;21.88;100.00;96280.31;5086959;28;20035;-73
2022/08/25 06:36:18;;;;;;;12.73;9.00;;;;;;;22.11;100.00;96276.84;5083055;28;20020;-74
2022/08/25 06:38:44;;;;;;;14.35;8.95;;;;;;;22.00;100.00;96285.69;5083650;28;20032;-74
2022/08/25 06:41:11;;;;;;;11.23;8.55;;;;;;;22.53;100.00;96276.78;5086685;28;20032;-73
2022/08/25 06:43:39;;;;;;;13.05;11.32;;;;;;;22.63;100.00;96276.19;5084479;28;20765;-74
2022/08/25 06:46:13;;;;;;;14.57;9.43;;;;;;;23.10;100.00;96270.78;5069447;28;20060;-74
2022/08/25 06:48:39;;;;;;;10.15;8.93;;;;;;;23.51;100.00;96271.59;5084166;28;20489;-74
2022/08/25 06:51:07;;;;;;;12.25;8.60;;;;;;;23.75;100.00;96273.16;5084805;28;20032;-74
2022/08/25 06:53:33;;;;;;;10.90;8.30;;;;;;;23.48;100.00;96269.41;5085071;28;20405;-74
2022/08/25 06:55:59;;;;;;;13.15;9.07;;;;;;;22.70;100.00;96268.03;5078920;28;20036;-74
2022/08/25 06:58:25;;;;;;;11.63;8.75;;;;;;;22.85;100.00;96267.56;5079322;28;20028;-74
2022/08/25 07:00:51;;;;;;;9.57;8.23;;;;;;;23.82;100.00;96256.88;5086437;28;20028;-74
2022/08/25 07:03:17;;;;;;;9.20;8.13;;;;;;;23.57;100.00;96259.88;5080776;28;20496;-74
2022/08/25 07:05:53;;;;;;;14.15;8.68;;;;;;;23.66;100.00;96263.00;5083678;28;20517;-74
2022/08/25 07:08:20;;;;;;;10.88;8.48;;;;;;;24.04;100.00;96270.41;5082348;28;20047;-74
2022/08/25 07:10:46;;;;;;;10.68;8.77;;;;;;;24.23;100.00;96263.72;5086546;28;20143;-74
2022/08/25 07:13:13;;;;;;;8.88;7.07;;;;;;;25.44;99.69;96261.34;5083209;28;20063;-74
2022/08/25 07:15:39;;;;;;;10.10;7.85;;;;;;;25.37;99.04;96256.97;5085304;28;20031;-74
2022/08/25 07:18:06;;;;;;;10.02;8.02;;;;;;;25.61;98.24;96262.06;5083986;28;20032;-74
2022/08/25 07:20:35;;;;;;;9.27;7.40;;;;;;;24.96;100.00;96265.59;5084442;28;20024;-74
2022/08/25 07:23:01;;;;;;;9.98;6.82;;;;;;;25.91;93.95;96253.50;5078306;28;20027;-74
2022/08/25 07:25:27;;;;;;;10.13;7.90;;;;;;;25.60;93.58;96260.44;5081766;28;20441;-75
2022/08/25 07:27:53;;;;;;;9.57;7.03;;;;;;;26.25;89.66;96261.31;5084476;28;20416;-75
2022/08/25 07:30:18;;;;;;;11.55;8.25;;;;;;;26.76;88.49;96262.50;5086205;28;20114;-74
2022/08/25 07:32:45;;;;;;;11.38;7.30;;;;;;;27.15;83.18;96264.06;5084720;28;20369;-74
2022/08/25 07:35:14;;;;;;;10.02;7.47;;;;;;;26.26;87.69;96269.16;5085965;28;20032;-74
2022/08/25 07:37:44;;;;;;;7.90;6.25;;;;;;;27.42;80.35;96266.59;5082565;28;20024;-74
2022/08/25 07:40:21;;;;;;;9.68;6.88;;;;;;;27.67;79.50;96263.16;5085623;28;20089;-72
2022/08/25 07:42:51;;;;;;;8.30;6.00;;;;;;;28.40;74.58;96258.41;5083111;28;20028;-73
2022/08/25 07:45:18;;;;;;;8.00;6.22;;;;;;;28.66;73.97;96253.72;5085121;28;20051;-72
2022/08/25 07:47:44;;;;;;;9.43;6.38;;;;;;;29.07;71.52;96258.25;5098913;28;20024;-72
2022/08/25 07:50:11;;;;;;;9.48;6.97;;;;;;;29.20;67.30;96254.94;5102059;28;20035;-72
2022/08/25 07:52:38;;;;;;;8.82;6.40;;;;;;;29.47;65.23;96251.03;5084556;28;20864;-72
2022/08/25 07:55:05;;;;;;;9.93;7.82;;;;;;;28.92;67.47;96252.88;5086064;28;20032;-72
2022/08/25 07:57:31;;;;;;;10.98;6.45;;;;;;;28.26;71.82;96257.28;5083985;28;20039;-73
2022/08/25 07:59:58;;;;;;;8.98;5.88;;;;;;;28.39;71.11;96254.03;5084874;28;20153;-73
2022/08/25 08:02:23;;;;;;;7.85;6.28;;;;;;;28.58;70.37;96256.19;5079397;28;20035;-73
2022/08/25 08:04:50;;;;;;;8.68;5.78;;;;;;;29.51;62.49;96254.78;5082813;28;20063;-73
2022/08/25 08:07:22;;;;;;;7.75;6.22;;;;;;;29.82;64.22;96248.13;5078143;28;20035;-73
2022/08/25 08:09:50;;;;;;;7.75;5.97;;;;;;;29.36;67.65;96247.56;5081435;28;20071;-73
2022/08/25 08:12:16;;;;;;;7.55;5.63;;;;;;;30.00;61.65;96246.66;5084190;28;20031;-73
2022/08/25 08:14:42;;;;;;;8.60;5.90;;;;;;;29.54;62.13;96259.66;5085174;28;20121;-72
2022/08/25 08:17:08;;;;;;;9.45;5.30;;;;;;;29.72;60.81;96256.34;5082390;28;20405;-73
2022/08/25 08:19:35;;;;;;;6.63;5.47;;;;;;;28.84;66.27;96257.78;5081771;28;20560;-72
2022/08/25 08:22:02;;;;;;;7.63;6.03;;;;;;;28.05;73.20;96252.97;5076440;28;20028;-72
2022/08/25 08:24:30;;;;;;;8.13;6.03;;;;;;;27.92;73.53;96257.81;5084980;28;20032;-73
2022/08/25 08:26:55;;;;;;;8.43;5.97;;;;;;;27.09;79.09;96260.50;5084360;28;20082;-73
2022/08/25 08:29:22;;;;;;;7.55;6.00;;;;;;;26.07;86.16;96265.22;5082991;28;20064;-72
2022/08/25 08:31:48;;;;;;;14.23;6.57;;;;;;;26.13;86.63;96261.50;5084334;28;20043;-73
2022/08/25 08:34:14;;;;;;;8.82;5.70;;;;;;;26.30;86.16;96262.19;5085824;28;20035;-73
2022/08/25 08:36:39;;;;;;;8.85;5.75;;;;;;;25.60;88.57;96261.25;5081472;28;20024;-72
2022/08/25 08:39:05;;;;;;;7.82;5.93;;;;;;;25.63;91.89;96259.94;5084711;28;20027;-73
2022/08/25 08:44:24;;;;;;;;;;;;;;;25.69;90.15;96255.41;5087296;28;20047;-73
2022/08/25 08:47:02;;;;;;;9.68;6.03;;;;;;;25.38;90.75;96245.13;5087324;28;19916;-72
2022/08/25 08:49:46;;;;;;;8.85;6.22;;;;;;;27.06;83.66;96239.41;5088650;28;20028;-73
2022/08/25 08:52:15;;;;;;;7.50;5.78;;;;;;;26.53;84.87;96236.75;5082282;28;20493;-75
2022/08/25 08:54:44;;;;;;;7.78;5.90;;;;;;;28.01;74.82;96227.56;5083693;28;20900;-72
2022/08/25 08:57:16;;;;;;;7.57;5.30;;;;;;;28.63;70.02;96231.81;5088259;28;20039;-72
2022/08/25 08:59:47;;;;;;;7.43;5.57;;;;;;;27.89;69.94;96228.59;5086385;28;20929;-72
2022/08/25 09:02:24;;;;;;;6.68;4.95;;;;;;;27.12;78.08;96227.56;5088079;28;20051;-73
2022/08/25 09:05:11;;;;;;;7.53;5.88;;;;;;;25.87;87.63;96233.53;5085788;28;20741;-73
2022/08/25 09:07:59;;;;;;;8.85;5.88;;;;;;;27.23;78.19;96233.84;5087088;28;20036;-73
2022/08/25 09:10:34;;;;;;;8.38;5.50;;;;;;;27.93;74.31;96223.47;5083006;28;20032;-73
2022/08/25 09:13:17;;;;;;;6.78;4.80;;;;;;;29.47;64.10;96218.50;5087909;28;20028;-73
2022/08/25 09:18:45;;;;;;;8.80;5.35;;;;;;;27.86;72.31;96223.75;5087105;28;20473;-73
2022/08/25 09:21:26;;;;;;;6.57;5.07;;;;;;;25.92;84.36;96225.47;5088211;28;20116;-72
2022/08/25 09:24:17;;;;;;;7.07;5.63;;;;;;;27.12;77.69;96215.97;5066513;28;20043;-73
2022/08/25 09:26:57;;;;;;;11.77;6.43;;;;;;;28.62;68.20;96211.28;5085079;28;20036;-73
2022/08/25 09:29:26;;;;;;;7.72;5.72;;;;;;;28.82;67.49;96211.22;5087425;28;20032;-73
2022/08/25 09:31:57;;;;;;;9.55;6.03;;;;;;;28.50;69.11;96214.25;5087024;28;20118;-73
2022/08/25 09:34:31;;;;;;;8.63;5.43;;;;;;;27.83;74.08;96208.06;5084706;28;20717;-73
2022/08/25 09:36:57;;;;;;;7.95;6.03;;;;;;;28.72;69.96;96199.59;5086576;28;20732;-73
2022/08/25 09:39:23;;;;;;;9.23;6.07;;;;;;;28.98;65.40;96198.44;5086889;28;20020;-74
2022/08/25 09:41:52;;;;;;;7.53;5.10;;;;;;;30.20;60.63;96194.16;5086246;28;20417;-73
2022/08/25 09:44:21;;;;;;;8.80;6.20;;;;;;;29.99;61.72;96184.56;5084473;28;20111;-73
2022/08/25 09:47:03;;;;;;;9.57;6.38;;;;;;;27.96;70.98;96194.00;5086581;28;20055;-73
2022/08/25 09:49:44;;;;;;;7.47;5.53;;;;;;;29.99;61.46;96190.00;5084267;28;20386;-73
2022/08/25 09:52:31;;;;;;;8.10;6.18;;;;;;;29.99;59.51;96192.72;5076464;28;20050;-74
2022/08/25 09:55:00;;;;;;;6.90;5.68;;;;;;;28.36;68.12;96186.94;5082751;28;20114;-73
2022/08/25 09:57:30;;;;;;;9.43;5.90;;;;;;;29.13;64.85;96184.03;5080975;28;20105;-73
2022/08/25 09:59:56;;;;;;;8.50;6.25;;;;;;;28.17;69.42;96185.91;5092835;28;20035;-73
2022/08/25 10:02:28;;;;;;;9.10;6.30;;;;;;;27.41;75.60;96181.25;5085426;28;20032;-73
2022/08/25 10:04:55;;;;;;;7.40;6.25;;;;;;;26.91;78.47;96178.13;5084051;28;20034;-73
2022/08/25 10:07:24;;;;;;;8.20;6.25;;;;;;;27.45;76.04;96175.03;5079455;28;20169;-73
2022/08/25 10:09:57;;;;;;;11.05;6.10;;;;;;;27.13;78.84;96172.56;5086476;28;20408;-73
2022/08/25 10:12:39;;;;;;;7.90;6.47;;;;;;;28.79;69.19;96168.44;5085580;28;20028;-73
2022/08/25 10:15:14;;;;;;;;;;;;;;;29.13;63.99;96163.16;5081580;28;20035;-73
2022/08/25 10:17:40;;;;;;;8.82;6.88;;;;;;;27.26;73.77;96172.06;5086232;28;20289;-73
2022/08/25 10:20:09;;;;;;;7.20;5.63;;;;;;;28.15;69.20;96166.44;5067432;28;20097;-73
2022/08/25 10:22:36;;;;;;;8.13;5.88;;;;;;;26.84;77.70;96166.75;5087020;28;20039;-73
2022/08/25 10:25:07;;;;;;;6.82;5.72;;;;;;;27.08;76.89;96167.09;5086683;28;20036;-74
2022/08/25 10:27:58;;;;;;;9.88;5.63;;;;;;;27.24;74.14;96165.28;5083865;28;20040;-73
2022/08/25 10:30:36;;;;;;;10.20;6.65;;;;;;;25.56;86.79;96160.50;5074960;28;20028;-74
2022/08/25 10:33:14;;;;;;;8.85;6.18;;;;;;;25.75;87.88;96154.72;5086494;28;20893;-73
2022/08/25 10:36:22;;;;;;;11.13;6.00;;;;;;;26.68;81.29;96147.00;5085029;28;20059;-73
2022/08/25 10:38:56;;;;;;;8.23;5.63;;;;;;;28.59;67.04;96138.75;5045861;28;20032;-74
2022/08/25 10:41:45;;;;;;;8.15;5.97;;;;;;;28.79;67.51;96149.50;5076917;28;20651;-73
2022/08/25 10:47:56;;;;;;;10.18;5.47;;;;;;;27.59;71.98;96152.91;5042842;28;20032;-74
2022/08/25 10:50:55;;;;;;;9.15;5.38;;;;;;;26.90;73.44;96144.13;5080568;28;20067;-75
2022/08/25 10:53:39;;;;;;;7.00;5.43;;;;;;;27.39;72.19;96129.38;5086387;28;20028;-74
2022/08/25 10:56:34;;;;;;;8.95;5.60;;;;;;;28.11;66.17;96141.03;5080630;28;20081;-75
2022/08/25 10:59:28;;;;;;;6.45;4.97;;;;;;;29.69;56.98;96126.81;5084672;28;20059;-75
2022/08/25 11:02:03;;;;;;;8.48;5.25;;;;;;;29.55;55.97;96123.91;5084144;28;20401;-75
2022/08/25 11:04:37;;;;;;;7.25;4.72;;;;;;;29.31;58.17;96125.69;5075818;28;20032;-75
2022/08/25 11:07:21;;;;;;;7.15;4.75;;;;;;;29.79;54.85;96121.28;5077859;28;20040;-75
2022/08/25 11:09:49;;;;;;;8.38;5.28;;;;;;;28.31;59.08;96135.56;5074241;28;20028;-75
2022/08/25 11:12:29;;;;;;;10.20;5.28;;;;;;;29.27;54.62;96120.03;5075168;28;20039;-75
2022/08/25 11:14:58;;;;;;;8.50;5.55;;;;;;;28.89;56.98;96122.38;5080823;28;20078;-75
2022/08/25 11:17:34;;;;;;;8.80;5.45;;;;;;;29.55;53.48;96125.81;5084485;28;20032;-75
2022/08/25 11:20:06;;;;;;;7.20;4.72;;;;;;;30.35;47.06;96124.56;5084593;28;20044;-75
2022/08/25 11:22:51;;;;;;;6.57;4.60;;;;;;;31.11;45.60;96117.41;5081621;28;20028;-75
2022/08/25 11:25:33;;;;;;;7.07;4.63;;;;;;;32.19;43.73;96111.91;5078159;28;21460;-75
2022/08/25 11:28:13;;;;;;;8.60;5.90;;;;;;;31.03;46.52;96121.59;5082964;28;20036;-75
2022/08/25 11:30:40;;;;;;;7.63;4.82;;;;;;;28.97;57.05;96129.09;5082229;28;20024;-75
2022/08/25 11:33:08;;;;;;;6.55;4.90;;;;;;;29.52;54.09;96119.06;5084670;28;20516;-75
2022/08/25 11:35:47;;;;;;;8.27;5.35;;;;;;;28.74;57.64;96122.47;5084253;28;20035;-74
2022/08/25 11:38:44;;;;;;;6.63;5.22;;;;;;;28.81;57.80;96117.56;5083350;28;20063;-75
2022/08/25 11:41:33;;;;;;;6.97;5.25;;;;;;;29.63;54.91;96110.88;5082326;28;20039;-73
2022/08/25 11:44:11;;;;;;;8.95;6.00;;;;;;;28.82;57.06;96119.19;5081521;28;20040;-73
2022/08/25 11:46:58;;;;;;;7.68;5.70;;;;;;;29.48;55.57;96120.72;5080021;28;20024;-73
2022/08/25 11:49:57;;;;;;;8.60;5.43;;;;;;;29.78;53.14;96111.56;5078113;28;20043;-73
2022/08/25 11:52:32;;;;;;;6.05;4.72;;;;;;;30.05;52.40;96112.94;5078736;28;20066;-73